createdAt,value
2023-03-25T00:01:26.197Z,4.53
2023-03-25T00:03:55.458Z,4.27
2023-03-25T00:06:24.825Z,5.30
2023-03-25T00:08:54.048Z,4.80
2023-03-25T00:11:23.312Z,4.93
2023-03-25T00:13:52.525Z,5.23
2023-03-25T00:16:21.888Z,5.00
2023-03-25T00:18:52.530Z,4.93
2023-03-25T00:21:21.756Z,5.40
2023-03-25T00:23:50.926Z,5.00
2023-03-25T00:26:20.233Z,5.27
2023-03-25T00:28:49.514Z,5.07
2023-03-25T00:31:18.970Z,5.30
2023-03-25T00:33:50.860Z,5.67
2023-03-25T00:36:21.495Z,4.87
2023-03-25T00:38:51.463Z,5.80
2023-03-25T00:41:25.919Z,5.17
2023-03-25T00:43:56.924Z,4.90
2023-03-25T00:46:27.783Z,5.17
2023-03-25T00:48:58.533Z,5.83
2023-03-25T00:51:31.514Z,5.00
2023-03-25T00:54:01.706Z,5.33
2023-03-25T00:56:31.717Z,5.60
2023-03-25T00:59:01.518Z,5.20
2023-03-25T01:01:31.687Z,5.57
2023-03-25T01:04:01.666Z,5.67
2023-03-25T01:06:36.227Z,6.00
2023-03-25T01:09:07.349Z,5.47
2023-03-25T01:11:38.690Z,5.63
2023-03-25T01:14:12.766Z,5.33
2023-03-25T01:16:42.027Z,5.30
2023-03-25T01:19:11.750Z,6.23
2023-03-25T01:21:45.454Z,5.80
2023-03-25T01:24:16.086Z,5.60
2023-03-25T01:26:46.242Z,6.07
2023-03-25T01:29:17.647Z,6.27
2023-03-25T01:31:47.067Z,6.07
2023-03-25T01:34:17.380Z,6.23
2023-03-25T01:36:47.960Z,5.90
2023-03-25T01:39:20.108Z,5.83
2023-03-25T01:41:51.557Z,6.63
2023-03-25T01:44:58.291Z,6.33
2023-03-25T01:47:28.086Z,6.67
2023-03-25T01:49:57.354Z,6.23
2023-03-25T01:52:30.073Z,7.00
2023-03-25T01:55:01.005Z,6.67
2023-03-25T01:57:31.762Z,6.40
2023-03-25T02:00:01.538Z,6.53
2023-03-25T02:02:35.216Z,6.67
2023-03-25T02:05:10.932Z,7.07
2023-03-25T02:07:46.999Z,6.80
2023-03-25T02:10:18.003Z,6.93
2023-03-25T02:12:48.399Z,6.47
2023-03-25T02:15:20.794Z,7.10
2023-03-25T02:18:20.079Z,7.13
2023-03-25T02:21:24.974Z,7.33
2023-03-25T02:24:26.109Z,6.63
2023-03-25T02:27:27.913Z,7.60
2023-03-25T02:30:27.428Z,7.20
2023-03-25T02:33:47.348Z,7.13
2023-03-25T02:36:47.108Z,7.37
2023-03-25T02:39:24.174Z,6.83
2023-03-25T02:42:01.568Z,7.30
2023-03-25T02:44:37.312Z,7.67
2023-03-25T02:47:10.071Z,7.00
2023-03-25T02:49:43.613Z,7.03
2023-03-25T02:52:17.116Z,7.17
2023-03-25T02:54:51.470Z,7.50
2023-03-25T02:57:24.382Z,7.50
2023-03-25T02:59:54.913Z,7.70
2023-03-25T03:02:27.941Z,7.37
2023-03-25T03:04:58.643Z,7.90
2023-03-25T03:07:37.699Z,7.83
2023-03-25T03:10:39.768Z,7.30
2023-03-25T03:14:53.573Z,7.73
2023-03-25T03:17:46.303Z,8.20
2023-03-25T07:19:15.696Z,9.63
2023-03-25T07:21:45.315Z,9.10
2023-03-25T07:24:15.338Z,8.90
2023-03-25T07:26:44.668Z,9.07
2023-03-25T07:29:15.678Z,10.13
2023-03-25T07:31:46.948Z,9.27
2023-03-25T07:34:17.744Z,8.67
2023-03-25T07:36:47.062Z,8.80
2023-03-25T07:39:16.444Z,8.17
2023-03-25T07:41:47.551Z,8.37
2023-03-25T07:44:47.467Z,8.60
2023-03-25T07:47:16.704Z,9.00
2023-03-25T07:49:48.064Z,8.95
2023-03-25T07:52:17.392Z,8.67
2023-03-25T07:54:46.583Z,8.87
2023-03-25T07:57:15.866Z,8.03
2023-03-25T07:59:45.184Z,8.23
2023-03-25T08:02:15.254Z,7.50
2023-03-25T08:04:44.705Z,7.70
2023-03-25T08:07:15.704Z,8.00
2023-03-25T08:09:44.928Z,8.00
2023-03-25T08:12:14.149Z,7.50
2023-03-25T08:14:43.370Z,7.93
2023-03-25T08:17:13.068Z,7.67
2023-03-25T08:19:42.349Z,8.03
2023-03-25T08:22:11.617Z,7.77
2023-03-25T08:24:42.320Z,6.63
2023-03-25T08:27:15.442Z,7.17
2023-03-25T08:29:47.411Z,6.72
2023-03-25T08:32:16.614Z,6.80
2023-03-25T08:34:45.841Z,6.72
2023-03-25T08:37:15.626Z,7.03
2023-03-25T08:39:50.343Z,7.30
2023-03-25T08:42:19.850Z,7.47
2023-03-25T08:44:49.042Z,6.63
2023-03-25T08:47:18.166Z,6.18
2023-03-25T08:49:47.373Z,6.63
2023-03-25T08:52:16.598Z,6.38
2023-03-25T08:54:47.284Z,6.90
2023-03-25T08:57:16.907Z,6.00
2023-03-25T08:59:46.244Z,6.35
2023-03-25T09:02:15.671Z,5.60
2023-03-25T09:04:45.223Z,4.88
2023-03-25T09:07:14.525Z,5.03
2023-03-25T09:09:43.977Z,4.72
2023-03-25T09:12:15.053Z,4.90
2023-03-25T09:14:45.428Z,4.38
2023-03-25T09:17:14.827Z,4.45
2023-03-25T09:19:44.679Z,4.90
2023-03-25T09:22:13.849Z,4.57
2023-03-25T09:24:43.328Z,4.43
2023-03-25T09:27:14.118Z,4.50
2023-03-25T09:29:43.888Z,4.82
2023-03-25T09:32:13.322Z,4.45
2023-03-25T09:34:42.733Z,4.57
2023-03-25T09:37:11.971Z,4.70
2023-03-25T09:39:41.244Z,4.30
2023-03-25T09:42:32.094Z,4.18
2023-03-25T09:45:15.569Z,4.20
2023-03-25T09:47:54.135Z,3.67
2023-03-25T09:50:25.037Z,3.88
2023-03-25T09:52:59.914Z,4.60
2023-03-25T09:55:33.766Z,4.85
2023-03-25T09:58:25.465Z,4.50
2023-03-25T10:01:00.583Z,4.95
2023-03-25T10:03:37.049Z,4.55
2023-03-25T10:06:19.044Z,4.78
2023-03-25T10:09:02.302Z,4.10
2023-03-25T10:11:41.795Z,3.00
2023-03-25T10:14:18.424Z,3.70
2023-03-25T10:16:57.660Z,4.43
2023-03-25T10:19:44.745Z,4.35
2023-03-25T10:22:20.462Z,4.55
2023-03-25T10:24:53.934Z,4.30
2023-03-25T10:27:27.962Z,3.92
2023-03-25T10:30:02.360Z,4.68
2023-03-25T10:32:38.178Z,6.07
2023-03-25T10:35:12.887Z,4.00
2023-03-25T10:37:43.437Z,4.43
2023-03-25T10:40:21.581Z,4.80
2023-03-25T10:43:16.765Z,4.30
2023-03-25T10:45:48.609Z,5.15
2023-03-25T10:48:23.128Z,4.47
2023-03-25T10:50:54.174Z,4.40
2023-03-25T10:53:26.094Z,4.85
2023-03-25T10:55:59.890Z,4.13
2023-03-25T10:58:30.285Z,4.40
2023-03-25T11:01:02.132Z,3.92
2023-03-25T11:03:34.096Z,3.45
2023-03-25T11:06:04.329Z,3.53
2023-03-25T11:08:34.053Z,3.78
2023-03-25T11:11:06.334Z,4.10
2023-03-25T11:13:37.328Z,3.40
2023-03-25T11:16:09.529Z,2.85
2023-03-25T11:18:40.959Z,2.95
2023-03-25T11:21:13.568Z,3.00
2023-03-25T11:23:46.655Z,2.60
2023-03-25T11:26:21.498Z,3.03
2023-03-25T11:28:52.173Z,3.35
2023-03-25T11:31:25.424Z,3.20
2023-03-25T11:34:07.435Z,2.80
2023-03-25T11:36:39.569Z,2.95
2023-03-25T11:39:17.990Z,3.13
2023-03-25T11:41:47.715Z,2.95
2023-03-25T11:44:24.680Z,2.95
2023-03-25T11:46:58.955Z,2.38
2023-03-25T11:49:29.861Z,3.08
2023-03-25T11:52:02.060Z,2.92
2023-03-25T11:54:32.333Z,2.83
2023-03-25T11:57:04.540Z,3.17
2023-03-25T11:59:43.645Z,3.33
2023-03-25T12:02:24.801Z,2.67
2023-03-25T12:05:03.814Z,2.88
2023-03-25T12:07:43.094Z,3.03
2023-03-25T12:10:20.433Z,3.08
2023-03-25T12:13:00.107Z,3.00
2023-03-25T12:15:39.461Z,3.03
2023-03-25T12:18:27.765Z,3.13
2023-03-25T12:21:06.466Z,3.28
2023-03-25T12:23:47.937Z,2.75
2023-03-25T12:26:20.689Z,3.30
2023-03-25T12:29:14.896Z,3.25
2023-03-25T12:31:57.218Z,3.00
2023-03-25T12:34:39.866Z,3.30
2023-03-25T12:37:21.020Z,3.30
2023-03-25T12:40:06.418Z,3.22
2023-03-25T12:42:44.746Z,3.13
2023-03-25T12:45:42.216Z,3.08
2023-03-25T12:48:21.720Z,2.83
2023-03-25T12:51:01.691Z,3.10
2023-03-25T12:53:46.394Z,2.90
2023-03-25T12:56:29.264Z,3.60
2023-03-25T12:59:32.915Z,2.85
2023-03-25T13:02:14.268Z,3.20
2023-03-25T13:05:01.132Z,3.10
2023-03-25T13:07:36.935Z,3.80
2023-03-25T13:10:14.783Z,3.40
2023-03-25T13:12:49.907Z,2.95
2023-03-25T13:15:27.215Z,2.70
2023-03-25T13:18:00.436Z,2.70
2023-03-25T13:20:33.480Z,2.92
2023-03-25T13:23:08.006Z,3.20
2023-03-25T13:25:49.105Z,2.63
2023-03-25T13:28:23.580Z,2.80
2023-03-25T13:30:53.768Z,3.37
2023-03-25T13:33:27.032Z,2.80
2023-03-25T13:35:59.709Z,3.23
2023-03-25T13:38:34.553Z,3.00
2023-03-25T13:41:13.696Z,3.33
2023-03-25T13:43:54.092Z,3.43
2023-03-25T13:46:28.811Z,3.70
2023-03-25T13:49:03.143Z,3.40
2023-03-25T13:51:32.489Z,3.93
2023-03-25T13:54:09.567Z,3.80
2023-03-25T13:57:08.825Z,4.17
2023-03-25T14:00:15.951Z,4.03
2023-03-25T14:03:07.788Z,5.50
2023-03-25T14:06:10.563Z,4.50
2023-03-25T14:09:26.759Z,4.53
2023-03-25T14:12:03.108Z,4.70
2023-03-25T14:14:37.502Z,5.27
2023-03-25T14:17:08.973Z,4.27
2023-03-25T14:19:40.910Z,3.93
2023-03-25T14:22:15.015Z,4.97
2023-03-25T14:24:47.732Z,4.37
2023-03-25T14:27:20.009Z,3.93
2023-03-25T14:29:57.014Z,4.17
2023-03-25T14:32:36.007Z,4.33
2023-03-25T14:35:59.388Z,4.10
2023-03-25T14:38:53.608Z,4.00
2023-03-25T14:41:59.493Z,4.30
2023-03-25T14:44:33.260Z,4.80
2023-03-25T14:47:25.970Z,4.10
2023-03-25T14:50:01.727Z,3.87
2023-03-25T14:52:34.062Z,3.77
2023-03-25T14:55:09.326Z,3.57
2023-03-25T14:57:45.785Z,3.30
2023-03-25T15:00:28.992Z,3.10
2023-03-25T15:03:05.062Z,3.50
2023-03-25T15:05:37.441Z,2.73
2023-03-25T15:08:18.200Z,2.17
2023-03-25T15:10:51.929Z,1.70
2023-03-25T15:13:28.711Z,1.57
2023-03-25T15:16:02.122Z,1.30
2023-03-25T15:19:00.764Z,1.10
2023-03-25T15:21:35.973Z,1.40
2023-03-25T15:24:12.314Z,1.20
2023-03-25T15:26:44.821Z,1.17
2023-03-25T15:29:54.560Z,1.00
2023-03-25T15:32:45.909Z,1.30
2023-03-25T15:35:38.563Z,1.20
2023-03-25T15:38:35.020Z,1.13
2023-03-25T15:41:17.706Z,1.10
2023-03-25T15:44:20.195Z,1.20
2023-03-25T15:47:16.564Z,1.50
2023-03-25T15:50:15.998Z,1.53
2023-03-25T15:53:39.460Z,2.00
2023-03-25T15:56:15.181Z,1.90
2023-03-25T15:58:52.956Z,1.90
2023-03-25T16:01:28.028Z,2.20
2023-03-25T16:04:06.367Z,2.10
2023-03-25T16:06:42.164Z,1.70
2023-03-25T16:09:18.315Z,1.80
2023-03-25T16:11:48.693Z,1.73
2023-03-25T16:14:19.739Z,1.70
2023-03-25T16:16:52.021Z,2.07
2023-03-25T16:19:25.894Z,1.90
2023-03-25T16:21:56.690Z,1.73
2023-03-25T16:24:30.052Z,1.80
2023-03-25T16:26:59.562Z,1.90
2023-03-25T16:29:29.099Z,1.90
2023-03-25T16:32:00.796Z,3.30
2023-03-25T16:34:38.192Z,2.00
2023-03-25T16:37:09.562Z,2.37
2023-03-25T16:39:39.911Z,2.00
2023-03-25T16:42:19.442Z,2.23
2023-03-25T16:44:49.761Z,2.20
2023-03-25T16:47:21.864Z,2.20
2023-03-25T16:49:56.185Z,2.60
2023-03-25T16:52:29.333Z,2.90
2023-03-25T16:55:43.254Z,2.70
2023-03-25T16:58:19.445Z,2.60
2023-03-25T17:00:54.052Z,2.80
2023-03-25T17:03:43.350Z,2.60
2023-03-25T17:06:22.845Z,2.70
2023-03-25T17:08:55.213Z,2.80
2023-03-25T17:11:28.773Z,2.50
2023-03-25T17:14:03.754Z,2.80
2023-03-25T17:16:35.737Z,2.87
2023-03-25T17:19:06.183Z,3.37
2023-03-25T17:21:38.671Z,3.27
2023-03-25T17:24:24.469Z,3.83
2023-03-25T17:26:59.312Z,3.73
2023-03-25T17:29:30.521Z,3.93
2023-03-25T17:32:01.326Z,4.37
2023-03-25T17:34:37.621Z,4.23
2023-03-25T17:37:14.577Z,4.37
2023-03-25T17:39:51.766Z,4.17
2023-03-25T17:42:26.079Z,4.00
2023-03-25T17:44:56.948Z,4.63
2023-03-25T17:47:27.456Z,4.07
2023-03-25T17:49:58.012Z,4.70
2023-03-25T17:52:32.078Z,4.80
2023-03-25T17:55:02.571Z,5.43
2023-03-25T17:57:32.466Z,5.97
2023-03-25T18:00:02.637Z,5.67
2023-03-25T18:02:36.676Z,6.20
2023-03-25T18:05:08.166Z,5.77
2023-03-25T18:07:41.581Z,5.43
2023-03-25T18:10:18.261Z,5.43
2023-03-25T18:12:48.191Z,5.53
2023-03-25T18:15:19.456Z,5.77
2023-03-25T18:17:53.409Z,6.20
2023-03-25T18:20:28.787Z,6.00
2023-03-25T18:23:01.408Z,6.10
2023-03-25T18:25:34.814Z,6.50
2023-03-25T18:28:04.328Z,6.20
2023-03-25T18:30:42.312Z,5.53
2023-03-25T18:33:13.433Z,6.10
2023-03-25T18:35:45.131Z,5.77
2023-03-25T18:38:20.677Z,5.93
2023-03-25T18:40:52.584Z,5.60
2023-03-25T18:43:24.477Z,5.47
2023-03-25T18:45:55.957Z,5.70
2023-03-25T18:48:27.684Z,5.43
2023-03-25T18:51:00.018Z,5.77
2023-03-25T18:53:32.332Z,5.70
2023-03-25T18:56:06.504Z,5.30
2023-03-25T18:58:38.038Z,6.23
2023-03-25T19:01:10.521Z,6.30
2023-03-25T19:03:46.924Z,6.40
2023-03-25T19:06:17.482Z,6.00
2023-03-25T19:08:51.168Z,6.00
2023-03-25T19:11:23.217Z,5.93
2023-03-25T19:13:53.860Z,4.87
2023-03-25T19:16:25.259Z,4.60
2023-03-25T19:18:57.051Z,4.23
2023-03-25T19:21:28.638Z,3.73
2023-03-25T19:23:59.943Z,3.60
2023-03-25T19:26:31.455Z,3.40
2023-03-25T19:29:01.427Z,3.40
2023-03-25T19:31:34.104Z,3.30
2023-03-25T19:34:04.652Z,3.03
2023-03-25T19:36:35.584Z,4.43
2023-03-25T19:39:09.099Z,4.07
2023-03-25T19:41:43.093Z,6.10
2023-03-25T19:44:14.713Z,3.87
2023-03-25T19:46:47.004Z,2.97
2023-03-25T19:49:25.884Z,2.93
2023-03-25T19:52:03.483Z,3.00
2023-03-25T19:54:35.653Z,2.77
2023-03-25T19:57:06.778Z,3.10
2023-03-25T19:59:38.537Z,3.20
2023-03-25T20:02:15.784Z,3.53
2023-03-25T20:04:50.664Z,4.00
2023-03-25T20:07:23.045Z,3.73
2023-03-25T20:09:57.345Z,4.10
2023-03-25T20:12:31.591Z,3.63
2023-03-25T20:15:02.868Z,3.43
2023-03-25T20:17:33.890Z,3.20
2023-03-25T20:20:07.148Z,3.07
2023-03-25T20:22:38.529Z,3.13
2023-03-25T20:25:13.235Z,3.03
2023-03-25T20:27:45.735Z,2.93
2023-03-25T20:30:18.447Z,3.07
2023-03-25T20:32:50.017Z,3.20
2023-03-25T20:35:21.903Z,3.37
2023-03-25T20:37:52.933Z,3.60
2023-03-25T20:40:37.299Z,3.40
2023-03-25T20:43:14.711Z,3.47
2023-03-25T20:45:46.397Z,3.73
2023-03-25T20:48:19.275Z,3.60
2023-03-25T20:50:49.994Z,3.90
2023-03-25T20:53:20.629Z,4.03
2023-03-25T20:55:54.851Z,4.30
2023-03-25T20:58:25.344Z,4.40
2023-03-25T21:02:26.244Z,3.87
2023-03-25T21:05:01.172Z,4.07
2023-03-25T21:07:35.863Z,4.80
2023-03-25T21:10:07.319Z,4.90
2023-03-25T21:12:43.921Z,5.10
2023-03-25T21:15:15.851Z,5.17
2023-03-25T21:17:47.792Z,5.20
2023-03-25T21:20:17.441Z,6.20
2023-03-25T21:22:47.734Z,5.83
2023-03-25T21:25:19.282Z,6.30
2023-03-25T21:27:51.644Z,6.20
2023-03-25T21:30:23.375Z,6.93
2023-03-25T21:32:52.969Z,6.57
2023-03-25T21:35:23.154Z,6.37
2023-03-25T21:37:52.805Z,6.37
2023-03-25T21:40:23.143Z,6.93
2023-03-25T21:42:54.586Z,7.10
2023-03-25T21:45:25.784Z,7.30
2023-03-25T21:47:55.637Z,7.80
2023-03-25T21:50:25.053Z,8.00
2023-03-25T21:52:54.675Z,7.50
2023-03-25T21:55:24.564Z,7.27
2023-03-25T21:57:55.462Z,7.40
2023-03-25T22:00:25.665Z,7.83
2023-03-25T22:02:58.688Z,7.70
2023-03-25T22:05:32.472Z,7.03
2023-03-25T22:08:01.803Z,7.70
2023-03-25T22:10:31.216Z,8.00
2023-03-25T22:13:02.049Z,7.87
2023-03-25T22:15:32.954Z,7.93
2023-03-25T22:18:02.756Z,8.60
2023-03-25T22:20:32.266Z,8.33
2023-03-25T22:23:01.521Z,8.20
2023-03-25T22:25:30.780Z,7.93
2023-03-25T22:28:01.454Z,8.40
2023-03-25T22:30:30.781Z,8.10
2023-03-25T22:33:00.325Z,8.37
2023-03-25T22:35:29.973Z,8.70
2023-03-25T22:37:59.300Z,7.83
2023-03-25T22:40:29.046Z,8.00
2023-03-25T22:42:58.390Z,8.43
2023-03-25T22:45:29.194Z,9.37
2023-03-25T22:47:58.405Z,8.87
2023-03-25T22:50:27.636Z,8.40
2023-03-25T22:52:56.823Z,8.77
2023-03-25T22:55:26.101Z,8.07
2023-03-25T22:57:55.202Z,8.03
2023-03-25T23:00:29.369Z,7.13
2023-03-25T23:02:58.701Z,7.80
2023-03-25T23:05:27.981Z,7.87
2023-03-25T23:07:57.250Z,7.70
2023-03-25T23:10:26.670Z,8.23
2023-03-25T23:12:56.832Z,7.80
2023-03-25T23:15:28.070Z,7.63
2023-03-25T23:17:58.769Z,7.60
2023-03-25T23:20:29.593Z,7.37
2023-03-25T23:22:58.947Z,7.80
2023-03-25T23:25:28.158Z,7.73
2023-03-25T23:27:58.378Z,7.87
2023-03-25T23:30:27.773Z,8.67
2023-03-25T23:32:58.628Z,8.23
2023-03-25T23:35:28.229Z,7.60
2023-03-25T23:37:57.457Z,8.03
2023-03-25T23:40:26.698Z,7.47
2023-03-25T23:42:57.262Z,7.30
2023-03-25T23:45:30.262Z,7.10
2023-03-25T23:48:01.731Z,7.10
2023-03-25T23:50:31.005Z,7.03
2023-03-25T23:53:01.794Z,7.60
2023-03-25T23:55:31.047Z,6.90
2023-03-25T23:58:00.379Z,7.00
